createdAt,value
2018-09-04T00:00:38.887Z,76.95
2018-09-04T00:03:07.191Z,78.10
2018-09-04T00:05:35.414Z,77.24
2018-09-04T00:08:03.614Z,77.60
2018-09-04T00:10:31.872Z,78.20
2018-09-04T00:13:00.109Z,77.21
2018-09-04T00:15:28.337Z,77.92
2018-09-04T00:17:56.550Z,77.96
2018-09-04T00:20:24.806Z,77.83
2018-09-04T00:22:52.992Z,77.71
2018-09-04T00:25:21.243Z,77.24
2018-09-04T00:27:49.562Z,77.87
2018-09-04T00:30:17.763Z,78.40
2018-09-04T00:32:45.955Z,78.16
2018-09-04T00:35:14.159Z,78.33
2018-09-04T00:37:42.396Z,77.48
2018-09-04T00:40:10.700Z,77.64
2018-09-04T00:42:38.922Z,77.73
2018-09-04T00:45:07.148Z,78.23
2018-09-04T00:47:35.379Z,77.50
2018-09-04T00:50:03.650Z,78.67
2018-09-04T00:52:31.967Z,77.95
2018-09-04T00:55:00.171Z,77.64
2018-09-04T00:57:28.411Z,78.53
2018-09-04T00:59:56.635Z,78.74
2018-09-04T01:02:24.964Z,78.83
2018-09-04T01:04:53.230Z,78.00
2018-09-04T01:07:21.420Z,77.52
2018-09-04T01:09:49.639Z,78.23
2018-09-04T01:12:17.843Z,78.46
2018-09-04T01:14:46.067Z,77.21
2018-09-04T01:17:14.378Z,77.18
2018-09-04T01:19:42.583Z,77.10
2018-09-04T01:22:10.775Z,77.72
2018-09-04T01:24:38.962Z,77.08
2018-09-04T01:27:07.219Z,76.81
2018-09-04T01:29:35.443Z,77.69
2018-09-04T01:32:03.670Z,78.18
2018-09-04T01:34:31.886Z,78.22
2018-09-04T01:37:00.075Z,77.50
2018-09-04T01:39:28.367Z,77.89
2018-09-04T01:41:56.566Z,76.58
2018-09-04T01:44:24.904Z,78.06
2018-09-04T01:46:53.109Z,78.02
2018-09-04T01:49:21.317Z,77.25
2018-09-04T01:51:49.591Z,77.36
2018-09-04T01:54:17.791Z,78.34
2018-09-04T01:56:46.053Z,76.94
2018-09-04T01:59:14.235Z,77.56
2018-09-04T02:01:42.458Z,77.72
2018-09-04T02:04:10.705Z,78.63
2018-09-04T02:06:38.987Z,78.54
2018-09-04T02:09:07.526Z,77.69
2018-09-04T02:11:35.746Z,78.45
2018-09-04T02:14:04.354Z,77.61
2018-09-04T02:16:32.671Z,78.46
2018-09-04T02:19:00.979Z,77.67
2018-09-04T02:21:29.199Z,78.22
2018-09-04T02:23:57.463Z,78.47
2018-09-04T02:26:25.679Z,78.56
2018-09-04T02:28:53.998Z,78.56
2018-09-04T02:31:22.279Z,77.48
2018-09-04T02:33:50.616Z,77.79
2018-09-04T02:36:18.808Z,77.69
2018-09-04T02:38:47.007Z,78.19
2018-09-04T02:41:15.204Z,77.87
2018-09-04T02:43:43.459Z,77.91
2018-09-04T02:46:11.758Z,78.60
2018-09-04T02:48:39.999Z,78.15
2018-09-04T02:51:08.182Z,77.96
2018-09-04T02:53:36.427Z,77.37
2018-09-04T02:56:04.667Z,78.62
2018-09-04T02:58:32.964Z,78.31
2018-09-04T03:01:01.218Z,77.42
2018-09-04T03:03:29.427Z,77.53
2018-09-04T03:05:57.649Z,76.54
2018-09-04T03:08:25.937Z,77.44
2018-09-04T03:10:54.181Z,77.64
2018-09-04T03:13:22.475Z,77.00
2018-09-04T03:15:50.601Z,77.61
2018-09-04T03:18:18.788Z,77.83
2018-09-04T03:20:47.060Z,77.52
2018-09-04T03:23:15.380Z,78.30
2018-09-04T03:25:43.600Z,77.70
2018-09-04T03:28:11.783Z,78.56
2018-09-04T03:30:39.981Z,77.53
2018-09-04T03:33:08.275Z,78.31
2018-09-04T03:35:36.507Z,77.84
2018-09-04T03:38:05.155Z,77.71
2018-09-04T03:40:33.335Z,76.86
2018-09-04T03:43:01.548Z,77.93
2018-09-04T03:45:29.739Z,77.95
2018-09-04T03:47:57.970Z,76.83
2018-09-04T03:50:26.174Z,77.11
2018-09-04T03:52:54.650Z,77.15
2018-09-04T03:55:22.923Z,78.00
2018-09-04T03:57:51.106Z,77.72
2018-09-04T04:00:19.353Z,78.64
2018-09-04T04:02:47.534Z,78.88
2018-09-04T04:05:15.767Z,79.06
2018-09-04T04:07:44.066Z,79.18
2018-09-04T04:10:12.319Z,78.61
2018-09-04T04:12:40.583Z,78.15
2018-09-04T04:15:08.875Z,78.98
2018-09-04T04:17:37.075Z,78.24
2018-09-04T04:20:05.323Z,78.73
2018-09-04T04:22:33.607Z,78.43
2018-09-04T04:25:01.874Z,79.11
2018-09-04T04:27:30.138Z,79.45
2018-09-04T04:29:58.375Z,78.48
2018-09-04T04:32:27.100Z,78.94
2018-09-04T04:34:55.423Z,78.63
2018-09-04T04:37:23.705Z,77.54
2018-09-04T04:39:52.017Z,78.58
2018-09-04T04:42:20.202Z,78.53
2018-09-04T04:44:48.420Z,77.90
2018-09-04T04:47:20.996Z,78.29
2018-09-04T04:49:49.299Z,77.36
2018-09-04T04:52:17.591Z,77.41
2018-09-04T04:54:45.825Z,77.30
2018-09-04T04:57:14.062Z,77.34
2018-09-04T04:59:42.307Z,78.11
2018-09-04T05:02:10.583Z,77.34
2018-09-04T05:04:38.775Z,78.05
2018-09-04T05:07:07.011Z,78.54
2018-09-04T05:09:35.227Z,77.99
2018-09-04T05:12:03.642Z,77.47
2018-09-04T05:14:31.847Z,77.79
2018-09-04T05:17:00.048Z,78.56
2018-09-04T05:19:28.243Z,77.76
2018-09-04T05:21:56.421Z,78.07
2018-09-04T05:24:24.764Z,78.84
2018-09-04T05:26:53.023Z,78.49
2018-09-04T05:29:21.284Z,77.65
2018-09-04T05:32:54.283Z,78.78
2018-09-04T05:35:22.608Z,77.86
2018-09-04T05:37:51.128Z,78.25
2018-09-04T05:40:19.336Z,78.23
2018-09-04T05:42:53.419Z,79.19
2018-09-04T05:45:22.963Z,78.54
2018-09-04T05:47:55.327Z,79.62
2018-09-04T05:50:23.543Z,79.14
2018-09-04T05:52:51.795Z,79.85
2018-09-04T05:55:20.135Z,79.00
2018-09-04T05:57:48.358Z,79.14
2018-09-04T06:00:19.560Z,79.20
2018-09-04T06:02:47.745Z,80.01
2018-09-04T06:05:15.992Z,80.06
2018-09-04T06:07:44.245Z,80.14
2018-09-04T06:10:12.482Z,79.26
2018-09-04T06:12:40.669Z,79.53
2018-09-04T06:15:09.197Z,79.86
2018-09-04T06:17:37.396Z,79.73
2018-09-04T06:20:05.842Z,78.75
2018-09-04T06:22:34.001Z,79.71
2018-09-04T06:25:02.202Z,79.54
2018-09-04T06:27:30.543Z,79.68
2018-09-04T06:29:58.795Z,78.25
2018-09-04T06:32:27.024Z,79.71
2018-09-04T06:34:55.246Z,79.79
2018-09-04T06:37:23.467Z,79.66
2018-09-04T06:39:52.063Z,79.00
2018-09-04T06:42:20.368Z,78.74
2018-09-04T06:44:48.558Z,79.10
2018-09-04T06:47:16.754Z,79.71
2018-09-04T06:49:44.962Z,78.62
2018-09-04T06:52:13.229Z,79.63
2018-09-04T06:54:41.494Z,78.90
2018-09-04T06:57:09.739Z,78.80
2018-09-04T06:59:37.928Z,80.18
2018-09-04T07:02:06.223Z,79.56
2018-09-04T07:04:34.438Z,79.32
2018-09-04T07:07:02.742Z,79.29
2018-09-04T07:09:30.955Z,79.85
2018-09-04T07:11:59.135Z,78.98
2018-09-04T07:14:27.359Z,79.55
2018-09-04T07:16:55.584Z,78.73
2018-09-04T07:19:23.879Z,78.96
2018-09-04T07:21:52.478Z,79.30
2018-09-04T07:24:20.767Z,79.17
2018-09-04T07:26:48.937Z,79.63
2018-09-04T07:29:17.125Z,78.53
2018-09-04T07:31:45.352Z,79.57
2018-09-04T07:34:13.726Z,78.95
2018-09-04T07:36:41.939Z,78.40
2018-09-04T07:39:11.520Z,77.46
2018-09-04T07:41:39.907Z,79.13
2018-09-04T07:44:08.170Z,78.90
2018-09-04T07:46:36.704Z,77.54
2018-09-04T07:49:05.131Z,78.22
2018-09-04T07:51:33.468Z,78.11
2018-09-04T07:54:01.763Z,77.41
2018-09-04T07:56:29.966Z,77.41
2018-09-04T07:58:58.211Z,77.65
2018-09-04T08:01:26.423Z,78.83
2018-09-04T08:03:54.670Z,78.38
2018-09-04T08:06:22.855Z,77.26
2018-09-04T08:08:51.046Z,76.68
2018-09-04T08:11:19.267Z,76.47
2018-09-04T08:13:47.470Z,76.28
2018-09-04T08:16:15.746Z,76.49
2018-09-04T08:18:43.948Z,76.83
2018-09-04T08:21:12.139Z,76.17
2018-09-04T08:23:40.403Z,76.53
2018-09-04T08:26:08.655Z,76.17
2018-09-04T08:28:37.086Z,75.45
2018-09-04T08:31:05.351Z,76.35
2018-09-04T08:33:33.577Z,75.17
2018-09-04T08:36:01.918Z,75.00
2018-09-04T08:38:30.093Z,75.19
2018-09-04T08:40:58.322Z,75.09
2018-09-04T08:43:26.523Z,75.79
2018-09-04T08:45:54.722Z,76.04
2018-09-04T08:48:22.960Z,74.43
2018-09-04T08:50:51.235Z,74.17
2018-09-04T08:53:19.470Z,74.61
2018-09-04T08:55:47.695Z,74.97
2018-09-04T08:58:15.863Z,75.09
2018-09-04T09:00:44.145Z,74.27
2018-09-04T09:03:12.435Z,74.66
2018-09-04T09:05:40.813Z,75.54
2018-09-04T09:08:08.950Z,74.02
2018-09-04T09:10:37.186Z,73.49
2018-09-04T09:13:05.506Z,75.00
2018-09-04T09:15:33.758Z,74.19
2018-09-04T09:18:01.955Z,74.61
2018-09-04T09:20:30.163Z,73.90
2018-09-04T09:22:58.436Z,74.19
2018-09-04T09:25:26.614Z,74.02
2018-09-04T09:27:54.847Z,73.54
2018-09-04T09:30:23.078Z,74.37
2018-09-04T09:32:51.262Z,74.10
2018-09-04T09:35:19.580Z,73.71
2018-09-04T09:37:48.352Z,73.24
2018-09-04T09:40:16.587Z,72.30
2018-09-04T09:42:44.875Z,72.12
2018-09-04T09:45:13.144Z,71.22
2018-09-04T09:47:46.767Z,71.78
2018-09-04T09:50:15.027Z,71.30
2018-09-04T09:52:43.766Z,71.41
2018-09-04T09:55:11.840Z,71.10
2018-09-04T09:57:40.488Z,70.04
2018-09-04T10:00:13.003Z,70.42
2018-09-04T10:02:46.480Z,70.32
2018-09-04T10:05:14.916Z,69.19
2018-09-04T10:07:43.259Z,69.79
2018-09-04T10:10:11.398Z,70.47
2018-09-04T10:12:39.648Z,69.87
2018-09-04T10:15:07.886Z,69.40
2018-09-04T10:17:36.172Z,70.37
2018-09-04T10:20:04.499Z,69.56
2018-09-04T10:22:32.667Z,70.64
2018-09-04T10:25:00.947Z,69.46
2018-09-04T10:27:29.139Z,70.10
2018-09-04T10:29:57.408Z,70.94
2018-09-04T10:32:25.604Z,71.61
2018-09-04T10:34:53.856Z,70.77
2018-09-04T10:37:22.055Z,71.20
2018-09-04T10:39:55.676Z,71.35
2018-09-04T10:42:29.183Z,70.68
2018-09-04T10:44:57.425Z,70.95
2018-09-04T10:47:25.608Z,71.11
2018-09-04T10:49:53.916Z,69.75
2018-09-04T10:52:22.119Z,69.71
2018-09-04T10:54:50.482Z,69.02
2018-09-04T10:57:19.088Z,68.06
2018-09-04T10:59:47.357Z,69.79
2018-09-04T11:02:17.698Z,68.64
2018-09-04T11:04:46.135Z,68.52
2018-09-04T11:07:14.310Z,69.18
2018-09-04T11:09:42.743Z,67.68
2018-09-04T11:12:10.899Z,66.81
2018-09-04T11:14:39.219Z,67.97
2018-09-04T11:17:07.508Z,66.64
2018-09-04T11:19:35.728Z,66.99
2018-09-04T11:22:03.927Z,66.05
2018-09-04T11:24:32.247Z,67.12
2018-09-04T11:27:00.459Z,68.22
2018-09-04T11:29:28.725Z,67.72
2018-09-04T11:31:56.919Z,68.97
2018-09-04T11:34:25.139Z,67.49
2018-09-04T11:36:53.327Z,66.86
2018-09-04T11:39:21.525Z,66.19
2018-09-04T11:41:49.727Z,65.88
2018-09-04T11:44:17.922Z,65.07
2018-09-04T11:46:46.119Z,63.96
2018-09-04T11:49:14.359Z,63.54
2018-09-04T11:51:42.654Z,63.94
2018-09-04T11:54:10.926Z,63.24
2018-09-04T11:56:40.276Z,62.69
2018-09-04T11:59:08.683Z,64.42
2018-09-04T12:01:38.610Z,63.88
2018-09-04T12:04:06.816Z,64.05
2018-09-04T12:06:35.099Z,64.96
2018-09-04T12:09:03.564Z,63.95
2018-09-04T12:11:31.771Z,62.65
2018-09-04T12:14:00.011Z,61.44
2018-09-04T12:16:28.268Z,62.08
2018-09-04T12:18:56.561Z,63.17
2018-09-04T12:21:24.754Z,63.28
2018-09-04T12:23:53.109Z,62.29
2018-09-04T12:26:21.274Z,62.54
2018-09-04T12:28:49.498Z,63.23
2018-09-04T12:31:17.780Z,63.50
2018-09-04T12:33:46.143Z,61.96
2018-09-04T12:36:14.378Z,63.77
2018-09-04T12:38:43.454Z,62.00
2018-09-04T12:41:17.057Z,62.90
2018-09-04T12:43:45.383Z,61.34
2018-09-04T12:46:13.888Z,61.04
2018-09-04T12:48:47.572Z,60.96
2018-09-04T12:51:15.891Z,60.98
2018-09-04T12:53:44.119Z,61.14
2018-09-04T12:56:12.392Z,59.79
2018-09-04T12:58:40.647Z,60.74
2018-09-04T13:01:08.898Z,59.90
2018-09-04T13:03:37.207Z,59.23
2018-09-04T13:06:05.549Z,59.22
2018-09-04T13:08:34.250Z,58.52
2018-09-04T13:11:02.486Z,58.06
2018-09-04T13:13:30.634Z,58.19
2018-09-04T13:16:00.396Z,56.14
2018-09-04T13:18:29.292Z,56.05
2018-09-04T13:21:05.691Z,55.11
2018-09-04T13:23:35.333Z,54.97
2018-09-04T13:26:03.885Z,53.37
2018-09-04T13:28:32.976Z,50.71
2018-09-04T13:31:01.270Z,50.15
2018-09-04T13:33:29.723Z,50.19
2018-09-04T13:35:57.923Z,50.25
2018-09-04T13:38:26.164Z,49.39
2018-09-04T13:40:59.801Z,47.69
2018-09-04T13:43:28.731Z,47.65
2018-09-04T13:45:57.005Z,46.89
2018-09-04T13:48:28.850Z,45.97
2018-09-04T13:50:57.383Z,44.82
2018-09-04T13:53:25.986Z,44.06
2018-09-04T13:55:55.527Z,44.20
2018-09-04T13:58:23.876Z,43.62
2018-09-04T14:00:52.118Z,44.76
2018-09-04T14:03:20.541Z,44.13
2018-09-04T14:05:48.725Z,42.58
2018-09-04T14:08:17.480Z,42.31
2018-09-04T14:10:45.808Z,42.75
2018-09-04T14:13:14.068Z,42.20
2018-09-04T14:15:42.315Z,42.44
2018-09-04T14:18:10.591Z,42.10
2018-09-04T14:20:38.912Z,43.22
2018-09-04T14:23:07.478Z,42.63
2018-09-04T14:25:36.008Z,43.81
2018-09-04T14:28:04.182Z,44.24
2018-09-04T14:30:32.561Z,44.09
2018-09-04T14:33:00.831Z,45.74
2018-09-04T14:35:29.372Z,46.24
2018-09-04T14:37:57.750Z,46.55
2018-09-04T14:40:26.025Z,46.10
2018-09-04T14:42:54.402Z,47.01
2018-09-04T14:45:22.766Z,48.13
2018-09-04T14:47:57.706Z,48.55
2018-09-04T14:50:26.015Z,49.98
2018-09-04T14:52:54.446Z,50.86
2018-09-04T14:55:22.654Z,49.92
2018-09-04T14:57:50.916Z,49.92
2018-09-04T15:00:19.119Z,50.92
2018-09-04T15:02:47.427Z,51.60
2018-09-04T15:05:15.787Z,51.68
2018-09-04T15:07:44.101Z,51.81
2018-09-04T15:10:12.302Z,51.78
2018-09-04T15:12:40.551Z,51.06
2018-09-04T15:15:08.907Z,51.50
2018-09-04T15:17:37.124Z,52.72
2018-09-04T15:20:05.853Z,53.06
2018-09-04T15:22:34.214Z,53.68
2018-09-04T15:25:02.400Z,54.53
2018-09-04T15:27:30.675Z,54.58
2018-09-04T15:29:58.942Z,55.54
2018-09-04T15:32:27.309Z,55.95
2018-09-04T15:34:55.477Z,55.64
2018-09-04T15:37:23.749Z,56.13
2018-09-04T15:39:52.011Z,58.63
2018-09-04T15:42:20.339Z,59.68
2018-09-04T15:44:48.632Z,61.41
2018-09-04T15:47:16.807Z,63.52
2018-09-04T15:49:45.680Z,63.94
2018-09-04T15:52:14.682Z,64.36
2018-09-04T15:54:42.950Z,65.93
2018-09-04T15:57:11.331Z,67.23
2018-09-04T15:59:39.691Z,68.18
2018-09-04T16:02:08.136Z,69.17
2018-09-04T16:04:36.688Z,70.07
2018-09-04T16:07:04.960Z,71.23
2018-09-04T16:09:33.246Z,72.42
2018-09-04T16:12:02.352Z,74.03
2018-09-04T16:14:30.818Z,74.49
2018-09-04T16:16:59.348Z,75.87
2018-09-04T16:19:27.716Z,76.69
2018-09-04T16:21:56.186Z,75.60
2018-09-04T16:24:24.392Z,76.69
2018-09-04T16:26:52.692Z,76.89
2018-09-04T16:29:21.071Z,77.44
2018-09-04T16:31:49.436Z,77.58
2018-09-04T16:34:17.796Z,77.65
2018-09-04T16:36:46.144Z,78.07
2018-09-04T16:39:14.704Z,77.84
2018-09-04T16:41:43.087Z,78.20
2018-09-04T16:44:11.326Z,78.87
2018-09-04T16:46:39.879Z,77.26
2018-09-04T16:49:08.060Z,77.50
2018-09-04T16:51:37.484Z,76.43
2018-09-04T16:54:06.862Z,76.98
2018-09-04T16:56:35.510Z,76.98
2018-09-04T16:59:04.140Z,77.43
2018-09-04T17:01:32.512Z,77.72
2018-09-04T17:04:00.942Z,78.33
2018-09-04T17:06:29.162Z,78.37
2018-09-04T17:08:57.477Z,77.45
2018-09-04T17:11:25.751Z,77.52
2018-09-04T17:13:53.937Z,77.32
2018-09-04T17:16:22.138Z,78.04
2018-09-04T17:18:50.490Z,78.02
2018-09-04T17:21:19.041Z,78.36
2018-09-04T17:23:47.303Z,78.57
2018-09-04T17:26:15.571Z,77.64
2018-09-04T17:28:43.767Z,78.00
2018-09-04T17:31:12.153Z,77.96
2018-09-04T17:33:40.909Z,78.29
2018-09-04T17:36:09.426Z,77.71
2018-09-04T17:38:37.688Z,78.17
2018-09-04T17:41:05.893Z,77.68
2018-09-04T17:43:34.130Z,77.30
2018-09-04T17:46:02.367Z,77.54
2018-09-04T17:48:30.624Z,76.66
2018-09-04T17:50:58.902Z,76.85
2018-09-04T17:53:27.134Z,76.47
2018-09-04T17:55:55.447Z,76.25
2018-09-04T17:58:24.223Z,76.50
2018-09-04T18:00:52.459Z,77.08
2018-09-04T18:03:20.920Z,76.35
2018-09-04T18:05:49.154Z,76.15
2018-09-04T18:08:17.381Z,76.77
2018-09-04T18:10:45.860Z,75.75
2018-09-04T18:13:14.280Z,74.83
2018-09-04T18:15:42.676Z,73.57
2018-09-04T18:18:10.950Z,73.68
2018-09-04T18:20:39.199Z,74.51
2018-09-04T18:23:07.784Z,74.38
2018-09-04T18:25:36.109Z,73.25
2018-09-04T18:28:04.730Z,74.59
2018-09-04T18:30:32.982Z,73.89
2018-09-04T18:33:01.239Z,73.81
2018-09-04T18:35:36.055Z,73.79
2018-09-04T18:38:05.751Z,74.39
2018-09-04T18:40:34.204Z,75.49
2018-09-04T18:43:02.514Z,74.48
2018-09-04T18:45:42.508Z,74.86
2018-09-04T18:48:10.946Z,74.93
2018-09-04T18:50:39.250Z,76.09
2018-09-04T18:53:07.697Z,76.12
2018-09-04T18:55:36.123Z,76.18
2018-09-04T18:58:04.447Z,75.81
2018-09-04T19:00:32.792Z,75.70
2018-09-04T19:03:01.042Z,75.11
2018-09-04T19:05:29.322Z,75.51
2018-09-04T19:07:58.027Z,76.44
2018-09-04T19:10:26.259Z,76.70
2018-09-04T19:12:54.438Z,76.17
2018-09-04T19:15:22.775Z,76.10
2018-09-04T19:17:50.970Z,77.12
2018-09-04T19:20:19.204Z,77.10
2018-09-04T19:22:47.354Z,77.19
2018-09-04T19:25:15.875Z,76.79
2018-09-04T19:27:44.044Z,76.54
2018-09-04T19:30:12.235Z,76.87
2018-09-04T19:32:40.477Z,77.82
2018-09-04T19:35:08.690Z,76.93
2018-09-04T19:37:37.029Z,77.18
2018-09-04T19:40:05.534Z,77.75
2018-09-04T19:42:33.768Z,78.54
2018-09-04T19:45:01.942Z,77.89
2018-09-04T19:47:30.173Z,77.96
2018-09-04T19:49:58.619Z,77.96
2018-09-04T19:52:26.758Z,78.63
2018-09-04T19:54:55.228Z,78.34
2018-09-04T19:57:23.559Z,78.10
2018-09-04T19:59:51.813Z,78.35
2018-09-04T20:02:20.167Z,79.27
2018-09-04T20:04:48.558Z,79.41
2018-09-04T20:07:17.104Z,79.54
2018-09-04T20:09:45.484Z,79.38
2018-09-04T20:12:13.756Z,79.21
2018-09-04T20:14:41.927Z,79.57
2018-09-04T20:17:10.190Z,78.60
2018-09-04T20:19:38.416Z,79.16
2018-09-04T20:22:07.570Z,78.83
2018-09-04T20:24:35.881Z,79.10
2018-09-04T20:27:04.084Z,78.70
2018-09-04T20:29:32.577Z,78.90
2018-09-04T20:32:00.832Z,79.57
2018-09-04T20:34:29.088Z,80.40
2018-09-04T20:36:57.651Z,79.66
2018-09-04T20:39:25.863Z,80.20
2018-09-04T20:41:54.322Z,80.76
2018-09-04T20:44:23.031Z,79.93
2018-09-04T20:46:51.311Z,80.16
2018-09-04T20:49:19.542Z,80.88
2018-09-04T20:51:48.484Z,80.27
2018-09-04T20:54:16.713Z,81.31
2018-09-04T20:56:58.333Z,80.21
2018-09-04T20:59:38.458Z,81.40
2018-09-04T21:02:17.989Z,80.23
2018-09-04T21:04:57.502Z,80.57
2018-09-04T21:07:42.786Z,80.56
2018-09-04T21:10:10.987Z,80.16
2018-09-04T21:12:39.221Z,80.98
2018-09-04T21:15:07.551Z,79.93
2018-09-04T21:17:35.866Z,79.81
2018-09-04T21:20:04.046Z,80.63
2018-09-04T21:22:32.504Z,80.65
2018-09-04T21:25:01.075Z,79.96
2018-09-04T21:27:29.371Z,79.73
2018-09-04T21:29:57.673Z,79.97
2018-09-04T21:32:25.910Z,80.16
2018-09-04T21:34:54.135Z,80.02
2018-09-04T21:37:22.936Z,80.11
2018-09-04T21:39:51.170Z,79.52
2018-09-04T21:42:19.538Z,79.33
2018-09-04T21:44:47.662Z,79.76
2018-09-04T21:47:15.885Z,79.79
2018-09-04T21:49:44.176Z,80.27
2018-09-04T21:52:12.446Z,80.27
2018-09-04T21:54:40.648Z,80.44
2018-09-04T21:57:08.859Z,79.65
2018-09-04T21:59:37.089Z,79.50
2018-09-04T22:02:05.597Z,80.46
2018-09-04T22:04:34.008Z,80.45
2018-09-04T22:07:02.889Z,80.16
2018-09-04T22:09:33.755Z,80.55
2018-09-04T22:12:02.147Z,80.63
2018-09-04T22:14:30.480Z,79.75
2018-09-04T22:16:58.766Z,80.59
2018-09-04T22:19:27.044Z,79.68
2018-09-04T22:21:55.391Z,80.03
2018-09-04T22:24:23.680Z,79.60
2018-09-04T22:26:51.980Z,80.50
2018-09-04T22:29:20.267Z,79.77
2018-09-04T22:31:48.474Z,79.52
2018-09-04T22:34:16.662Z,80.00
2018-09-04T22:36:44.895Z,80.31
2018-09-04T22:39:13.091Z,79.26
2018-09-04T22:41:41.790Z,79.31
2018-09-04T22:44:09.970Z,79.78
2018-09-04T22:46:38.237Z,79.30
2018-09-04T22:49:06.391Z,79.34
2018-09-04T22:51:36.811Z,80.10
2018-09-04T22:54:06.215Z,79.61
2018-09-04T22:56:34.829Z,79.28
2018-09-04T22:59:03.046Z,78.97
2018-09-04T23:01:31.299Z,79.94
2018-09-04T23:03:59.533Z,79.10
2018-09-04T23:06:27.698Z,79.59
2018-09-04T23:08:55.903Z,78.93
2018-09-04T23:11:24.168Z,78.40
2018-09-04T23:13:52.386Z,79.46
2018-09-04T23:16:20.566Z,78.96
2018-09-04T23:18:48.774Z,79.19
2018-09-04T23:21:48.470Z,79.16
2018-09-04T23:24:16.644Z,78.25
2018-09-04T23:26:44.839Z,79.18
2018-09-04T23:29:13.120Z,78.32
2018-09-04T23:31:41.335Z,78.89
2018-09-04T23:34:09.550Z,78.01
2018-09-04T23:36:37.769Z,78.33
2018-09-04T23:39:06.446Z,78.99
2018-09-04T23:41:34.708Z,78.50
2018-09-04T23:44:02.978Z,78.60
2018-09-04T23:46:32.132Z,79.47
2018-09-04T23:49:00.463Z,78.48
2018-09-04T23:51:28.696Z,78.84
2018-09-04T23:53:56.874Z,79.70
2018-09-04T23:56:25.363Z,79.67
2018-09-04T23:58:53.606Z,78.78
